createdAt,value
2019-03-21T00:00:49.297Z,25.37
2019-03-21T00:02:06.558Z,24.63
2019-03-21T00:03:12.460Z,23.73
2019-03-21T00:04:18.333Z,18.20
2019-03-21T00:05:26.006Z,23.77
2019-03-21T00:06:32.026Z,20.07
2019-03-21T00:07:38.567Z,24.20
2019-03-21T00:08:46.718Z,21.00
2019-03-21T00:10:23.401Z,21.30
2019-03-21T00:11:59.348Z,21.67
2019-03-21T00:13:05.802Z,26.03
2019-03-21T00:14:26.577Z,24.43
2019-03-21T00:15:49.213Z,22.47
2019-03-21T00:16:57.258Z,26.10
2019-03-21T00:18:12.839Z,26.27
2019-03-21T00:19:19.923Z,25.10
2019-03-21T00:20:26.383Z,26.93
2019-03-21T00:21:33.420Z,22.47
2019-03-21T00:22:40.303Z,22.67
2019-03-21T00:23:48.023Z,23.00
2019-03-21T00:24:55.095Z,26.97
2019-03-21T00:26:01.135Z,24.20
2019-03-21T00:27:07.286Z,24.20
2019-03-21T00:28:13.421Z,20.47
2019-03-21T00:29:20.384Z,28.93
2019-03-21T00:30:28.801Z,26.30
2019-03-21T00:31:35.616Z,24.23
2019-03-21T00:32:42.705Z,26.17
2019-03-21T00:33:48.688Z,21.40
2019-03-21T00:34:57.155Z,26.63
2019-03-21T00:36:03.490Z,23.20
2019-03-21T00:37:10.217Z,21.40
2019-03-21T00:38:16.946Z,21.57
2019-03-21T00:39:32.589Z,20.30
2019-03-21T00:40:49.303Z,22.67
2019-03-21T00:41:55.913Z,26.73
2019-03-21T00:43:06.936Z,21.63
2019-03-21T00:44:18.366Z,22.87
2019-03-21T00:45:24.693Z,23.13
2019-03-21T00:46:31.605Z,24.77
2019-03-21T00:47:39.768Z,25.90
2019-03-21T00:48:47.058Z,23.47
2019-03-21T00:49:54.347Z,25.00
2019-03-21T00:51:00.864Z,23.77
2019-03-21T00:52:07.777Z,22.43
2019-03-21T00:53:14.416Z,25.90
2019-03-21T00:54:21.426Z,25.90
2019-03-21T00:55:36.037Z,22.50
2019-03-21T00:56:42.220Z,23.33
2019-03-21T00:57:48.117Z,32.00
2019-03-21T00:58:56.517Z,22.60
2019-03-21T01:00:02.828Z,22.60
2019-03-21T01:01:12.068Z,23.00
2019-03-21T01:02:18.413Z,23.73
2019-03-21T01:03:25.240Z,26.87
2019-03-21T01:04:31.385Z,28.03
2019-03-21T01:05:38.377Z,25.07
2019-03-21T01:06:45.991Z,23.17
2019-03-21T01:07:52.707Z,27.30
2019-03-21T01:08:58.847Z,25.93
2019-03-21T01:10:11.685Z,26.80
2019-03-21T01:11:19.587Z,25.63
2019-03-21T01:12:28.019Z,27.57
2019-03-21T01:13:39.217Z,27.77
2019-03-21T01:14:47.827Z,25.70
2019-03-21T01:15:56.657Z,23.30
2019-03-21T01:17:03.926Z,24.20
2019-03-21T01:18:10.488Z,24.50
2019-03-21T01:19:16.998Z,22.20
2019-03-21T01:20:23.700Z,25.03
2019-03-21T01:21:31.848Z,28.00
2019-03-21T01:22:40.448Z,23.77
2019-03-21T01:23:47.047Z,29.63
2019-03-21T01:24:53.728Z,32.27
2019-03-21T01:26:09.155Z,21.77
2019-03-21T01:27:15.499Z,28.60
2019-03-21T01:28:21.438Z,26.13
2019-03-21T01:29:28.938Z,26.40
2019-03-21T01:30:35.078Z,25.30
2019-03-21T01:31:44.418Z,30.87
2019-03-21T01:32:50.507Z,26.03
2019-03-21T01:33:58.327Z,25.80
2019-03-21T01:35:05.228Z,28.53
2019-03-21T01:36:11.728Z,26.83
2019-03-21T01:37:17.675Z,25.97
2019-03-21T01:38:24.544Z,27.10
2019-03-21T01:39:30.721Z,26.00
2019-03-21T01:40:44.875Z,26.70
2019-03-21T01:42:12.056Z,27.20
2019-03-21T01:43:19.354Z,27.27
2019-03-21T01:44:28.056Z,27.17
2019-03-21T01:45:35.066Z,22.80
2019-03-21T01:46:42.694Z,26.40
2019-03-21T01:47:51.373Z,23.47
2019-03-21T01:48:57.808Z,25.23
2019-03-21T01:50:07.769Z,27.30
2019-03-21T01:51:14.489Z,23.00
2019-03-21T01:52:21.396Z,33.33
2019-03-21T01:53:30.634Z,34.97
2019-03-21T01:54:37.649Z,27.60
2019-03-21T01:55:45.328Z,81.57
2019-03-21T01:56:51.256Z,47.70
2019-03-21T01:57:57.322Z,38.00
2019-03-21T01:59:03.768Z,40.17
2019-03-21T02:00:31.419Z,38.63
2019-03-21T02:01:37.676Z,40.70
2019-03-21T02:02:43.966Z,32.97
2019-03-21T02:03:50.239Z,31.40
2019-03-21T02:04:56.770Z,28.70
2019-03-21T02:06:03.617Z,27.70
2019-03-21T02:07:10.120Z,29.37
2019-03-21T02:08:16.739Z,29.17
2019-03-21T02:09:23.159Z,29.33
2019-03-21T02:10:30.841Z,25.60
2019-03-21T02:11:38.803Z,28.10
2019-03-21T02:12:45.809Z,29.67
2019-03-21T02:13:54.129Z,27.83
2019-03-21T02:15:01.515Z,32.00
2019-03-21T02:16:07.801Z,31.17
2019-03-21T02:17:14.860Z,27.80
2019-03-21T02:18:21.264Z,31.53
2019-03-21T02:19:30.623Z,29.33
2019-03-21T02:20:39.598Z,34.33
2019-03-21T02:21:46.519Z,30.43
2019-03-21T02:22:53.590Z,32.80
2019-03-21T02:24:00.093Z,33.17
2019-03-21T02:25:12.080Z,31.30
2019-03-21T02:26:18.569Z,28.17
2019-03-21T02:27:25.030Z,31.07
2019-03-21T02:28:31.320Z,33.37
2019-03-21T02:29:37.781Z,29.77
2019-03-21T02:30:50.093Z,28.90
2019-03-21T02:31:57.691Z,29.37
2019-03-21T02:33:34.265Z,27.23
2019-03-21T02:34:40.332Z,29.20
2019-03-21T02:35:46.392Z,27.80
2019-03-21T02:36:52.312Z,28.13
2019-03-21T02:37:58.410Z,28.93
2019-03-21T02:39:06.131Z,33.33
2019-03-21T02:40:17.096Z,31.63
2019-03-21T02:41:25.705Z,31.33
2019-03-21T02:42:31.533Z,28.90
2019-03-21T02:43:39.080Z,30.60
2019-03-21T02:44:45.505Z,29.43
2019-03-21T02:45:53.261Z,31.93
2019-03-21T02:47:00.899Z,28.03
2019-03-21T02:48:07.134Z,33.20
2019-03-21T02:49:13.441Z,32.50
2019-03-21T02:50:25.190Z,32.83
2019-03-21T02:51:33.132Z,37.37
2019-03-21T02:52:39.979Z,30.57
2019-03-21T02:53:47.186Z,35.73
2019-03-21T02:54:53.901Z,33.43
2019-03-21T02:56:00.692Z,36.23
2019-03-21T02:57:06.852Z,32.27
2019-03-21T02:58:14.861Z,28.73
2019-03-21T02:59:21.942Z,30.60
2019-03-21T03:00:44.021Z,32.17
2019-03-21T03:01:49.944Z,32.27
2019-03-21T03:02:58.424Z,30.63
2019-03-21T03:04:05.153Z,30.30
2019-03-21T03:05:23.992Z,27.27
2019-03-21T03:06:32.291Z,30.73
2019-03-21T03:07:39.291Z,36.53
2019-03-21T03:08:45.691Z,35.03
2019-03-21T03:09:53.343Z,38.43
2019-03-21T03:11:19.253Z,35.50
2019-03-21T03:12:26.693Z,36.23
2019-03-21T03:13:33.654Z,32.67
2019-03-21T03:14:40.173Z,39.57
2019-03-21T03:15:46.663Z,37.80
2019-03-21T03:16:53.452Z,28.87
2019-03-21T03:18:01.859Z,28.20
2019-03-21T03:19:07.984Z,34.63
2019-03-21T03:20:18.133Z,37.07
2019-03-21T03:21:25.195Z,39.70
2019-03-21T03:22:33.198Z,44.10
2019-03-21T03:23:39.591Z,65.37
2019-03-21T03:24:46.838Z,58.87
2019-03-21T03:25:53.511Z,63.83
2019-03-21T03:26:59.826Z,58.83
2019-03-21T03:28:27.815Z,43.47
2019-03-21T03:29:34.193Z,50.33
2019-03-21T03:30:40.577Z,43.97
2019-03-21T03:31:48.254Z,39.37
2019-03-21T03:32:54.706Z,32.97
2019-03-21T03:34:02.827Z,36.87
2019-03-21T03:35:13.046Z,32.97
2019-03-21T03:36:20.933Z,32.87
2019-03-21T03:37:26.903Z,31.57
2019-03-21T03:38:33.303Z,33.87
2019-03-21T03:39:39.842Z,34.03
2019-03-21T03:41:01.782Z,35.50
2019-03-21T03:42:07.782Z,38.30
2019-03-21T03:43:16.123Z,33.43
2019-03-21T03:44:23.074Z,30.97
2019-03-21T03:45:38.576Z,35.00
2019-03-21T03:46:45.042Z,35.20
2019-03-21T03:47:51.225Z,29.93
2019-03-21T03:48:58.903Z,32.30
2019-03-21T03:50:08.967Z,33.40
2019-03-21T03:51:16.906Z,33.67
2019-03-21T03:52:25.814Z,33.97
2019-03-21T03:53:32.452Z,30.83
2019-03-21T03:54:38.960Z,36.63
2019-03-21T03:55:45.594Z,40.00
2019-03-21T03:56:52.383Z,47.60
2019-03-21T03:58:08.834Z,47.47
2019-03-21T03:59:16.794Z,61.73
2019-03-21T04:00:23.754Z,51.87
2019-03-21T04:01:29.889Z,41.27
2019-03-21T04:02:37.695Z,35.63
2019-03-21T04:03:46.414Z,39.47
2019-03-21T04:04:52.991Z,43.90
2019-03-21T04:05:59.504Z,43.03
2019-03-21T04:07:06.044Z,40.57
2019-03-21T04:08:13.157Z,65.00
2019-03-21T04:09:20.275Z,54.27
2019-03-21T04:10:33.177Z,52.83
2019-03-21T04:11:41.183Z,67.30
2019-03-21T04:12:49.094Z,58.73
2019-03-21T04:13:55.669Z,57.10
2019-03-21T04:15:02.764Z,47.50
2019-03-21T04:16:09.944Z,46.50
2019-03-21T04:17:16.559Z,36.27
2019-03-21T04:18:27.183Z,47.20
2019-03-21T04:19:36.034Z,47.60
2019-03-21T04:21:02.029Z,40.33
2019-03-21T04:22:08.324Z,41.17
2019-03-21T04:23:17.388Z,34.87
2019-03-21T04:24:24.339Z,29.67
2019-03-21T04:25:54.255Z,37.30
2019-03-21T04:27:11.279Z,36.70
2019-03-21T04:28:17.634Z,49.50
2019-03-21T04:29:24.326Z,38.80
2019-03-21T04:30:30.884Z,39.73
2019-03-21T04:31:37.953Z,43.70
2019-03-21T04:32:44.538Z,32.30
2019-03-21T04:33:54.305Z,35.40
2019-03-21T04:35:00.694Z,65.67
2019-03-21T04:36:07.314Z,75.07
2019-03-21T04:37:15.355Z,92.13
2019-03-21T04:38:23.375Z,61.30
2019-03-21T04:39:31.035Z,53.50
2019-03-21T04:40:37.175Z,59.10
2019-03-21T04:41:46.109Z,51.17
2019-03-21T04:42:54.135Z,48.63
2019-03-21T04:44:02.791Z,50.53
2019-03-21T04:45:22.685Z,53.53
2019-03-21T04:46:29.245Z,47.63
2019-03-21T04:47:35.281Z,51.17
2019-03-21T04:48:41.750Z,54.97
2019-03-21T04:49:48.495Z,42.30
2019-03-21T04:50:55.372Z,35.60
2019-03-21T04:52:03.404Z,36.27
2019-03-21T04:53:09.654Z,31.83
2019-03-21T04:54:42.297Z,44.57
2019-03-21T04:56:00.355Z,32.90
2019-03-21T04:57:20.138Z,34.20
2019-03-21T04:58:26.215Z,36.37
2019-03-21T05:02:09.916Z,39.43
2019-03-21T05:03:25.087Z,41.90
2019-03-21T05:05:00.236Z,54.23
2019-03-21T05:08:36.016Z,46.47
2019-03-21T05:10:06.746Z,30.87
2019-03-21T05:11:39.896Z,36.43
2019-03-21T05:12:46.482Z,43.67
2019-03-21T05:13:52.983Z,51.30
2019-03-21T05:14:59.407Z,33.30
2019-03-21T05:16:15.039Z,39.47
2019-03-21T05:17:19.264Z,48.77
2019-03-21T05:18:33.785Z,43.40
2019-03-21T05:19:40.295Z,42.77
2019-03-21T05:21:20.328Z,45.47
2019-03-21T05:22:42.243Z,44.23
2019-03-21T05:23:47.903Z,46.07
2019-03-21T05:24:59.577Z,41.07
2019-03-21T05:26:07.357Z,42.57
2019-03-21T05:27:15.117Z,34.10
2019-03-21T05:28:22.796Z,37.00
2019-03-21T05:29:36.619Z,46.83
2019-03-21T05:33:03.527Z,49.97
2019-03-21T05:34:18.357Z,42.70
2019-03-21T05:35:26.917Z,40.27
2019-03-21T05:36:33.087Z,47.47
2019-03-21T05:37:40.885Z,40.10
2019-03-21T05:38:47.376Z,41.77
2019-03-21T05:39:54.496Z,47.93
2019-03-21T05:41:01.205Z,50.93
2019-03-21T05:42:09.937Z,45.50
2019-03-21T05:43:39.074Z,69.97
2019-03-21T05:44:45.704Z,99.63
2019-03-21T05:45:53.346Z,105.27
2019-03-21T05:47:01.861Z,73.93
2019-03-21T05:48:08.296Z,59.97
2019-03-21T05:50:33.477Z,45.90
2019-03-21T05:51:40.857Z,45.70
2019-03-21T05:52:49.107Z,46.27
2019-03-21T05:53:57.248Z,36.17
2019-03-21T05:55:04.098Z,35.87
2019-03-21T05:56:11.996Z,37.43
2019-03-21T05:57:19.705Z,36.63
2019-03-21T05:58:25.837Z,35.30
2019-03-21T05:59:31.968Z,40.77
2019-03-21T06:00:45.326Z,36.43
2019-03-21T06:01:51.938Z,35.40
2019-03-21T06:02:58.647Z,43.53
2019-03-21T06:04:04.658Z,35.17
2019-03-21T06:05:10.736Z,39.07
2019-03-21T06:06:21.538Z,40.07
2019-03-21T06:07:32.349Z,39.20
2019-03-21T06:08:41.228Z,42.43
2019-03-21T06:09:47.805Z,54.87
2019-03-21T06:10:54.645Z,56.17
2019-03-21T06:12:03.986Z,54.33
2019-03-21T06:13:10.998Z,73.80
2019-03-21T06:14:19.798Z,68.07
2019-03-21T06:15:35.178Z,65.60
2019-03-21T06:16:43.624Z,47.83
2019-03-21T06:18:20.605Z,64.57
2019-03-21T06:19:50.667Z,69.20
2019-03-21T06:21:04.433Z,76.50
2019-03-21T06:22:28.588Z,81.70
2019-03-21T06:24:03.909Z,58.07
2019-03-21T06:25:45.386Z,83.00
2019-03-21T06:27:14.379Z,109.63
2019-03-21T06:28:23.228Z,97.20
2019-03-21T06:29:30.259Z,64.73
2019-03-21T06:30:38.767Z,53.57
2019-03-21T06:31:46.845Z,83.23
2019-03-21T06:32:53.366Z,45.90
2019-03-21T06:34:01.662Z,49.63
2019-03-21T06:35:13.114Z,55.70
2019-03-21T06:36:19.318Z,65.20
2019-03-21T06:37:28.467Z,38.60
2019-03-21T06:38:33.968Z,73.33
2019-03-21T06:39:40.753Z,52.43
2019-03-21T06:40:47.149Z,54.53
2019-03-21T06:41:53.818Z,67.70
2019-03-21T06:43:03.419Z,67.00
2019-03-21T06:44:10.749Z,56.00
2019-03-21T06:45:20.579Z,45.23
2019-03-21T06:46:28.879Z,58.50
2019-03-21T06:47:35.757Z,59.97
2019-03-21T06:48:42.519Z,42.17
2019-03-21T06:49:49.099Z,67.27
2019-03-21T06:50:56.051Z,69.23
2019-03-21T06:52:02.700Z,51.10
2019-03-21T06:53:09.520Z,51.10
2019-03-21T06:54:16.693Z,40.70
2019-03-21T06:55:23.272Z,55.90
2019-03-21T06:56:29.528Z,42.10
2019-03-21T06:57:36.295Z,44.13
2019-03-21T06:58:43.931Z,32.47
2019-03-21T06:59:49.758Z,38.23
2019-03-21T07:00:55.771Z,34.63
2019-03-21T07:02:01.841Z,39.93
2019-03-21T07:03:10.730Z,33.83
2019-03-21T07:04:18.657Z,34.73
2019-03-21T07:05:26.837Z,43.77
2019-03-21T07:06:33.269Z,38.33
2019-03-21T07:07:39.458Z,42.10
2019-03-21T07:08:47.090Z,39.57
2019-03-21T07:09:53.630Z,36.03
2019-03-21T07:11:00.408Z,36.30
2019-03-21T07:12:06.991Z,33.10
2019-03-21T07:13:15.125Z,37.47
2019-03-21T07:14:21.911Z,42.60
2019-03-21T07:15:28.149Z,42.83
2019-03-21T07:16:36.111Z,29.70
2019-03-21T07:17:44.428Z,28.30
2019-03-21T07:18:50.941Z,30.30
2019-03-21T07:19:58.381Z,32.80
2019-03-21T07:21:05.501Z,29.93
2019-03-21T07:22:13.982Z,41.33
2019-03-21T07:23:21.023Z,45.80
2019-03-21T07:24:27.451Z,53.20
2019-03-21T07:25:36.671Z,53.47
2019-03-21T07:26:43.422Z,33.33
2019-03-21T07:27:51.520Z,28.37
2019-03-21T07:28:57.605Z,31.93
2019-03-21T07:30:05.104Z,34.60
2019-03-21T07:31:11.437Z,35.13
2019-03-21T07:32:17.589Z,34.57
2019-03-21T07:33:23.801Z,37.13
2019-03-21T07:34:29.842Z,31.40
2019-03-21T07:35:37.541Z,29.33
2019-03-21T07:36:43.650Z,32.77
2019-03-21T07:37:49.564Z,35.27
2019-03-21T07:38:57.232Z,30.10
2019-03-21T07:40:03.199Z,30.17
2019-03-21T07:41:10.553Z,37.17
2019-03-21T07:42:17.871Z,32.33
2019-03-21T07:43:25.711Z,30.70
2019-03-21T07:44:32.802Z,29.60
2019-03-21T07:45:40.103Z,27.97
2019-03-21T07:46:47.355Z,30.10
2019-03-21T07:47:54.103Z,28.93
2019-03-21T07:49:00.919Z,29.33
2019-03-21T07:50:12.553Z,24.47
2019-03-21T07:51:19.061Z,30.43
2019-03-21T07:52:26.203Z,32.40
2019-03-21T07:53:33.432Z,31.70
2019-03-21T07:54:40.589Z,32.03
2019-03-21T07:55:47.724Z,37.77
2019-03-21T07:56:54.423Z,44.00
2019-03-21T07:58:02.303Z,77.50
2019-03-21T07:59:08.823Z,36.47
2019-03-21T08:00:19.926Z,32.17
2019-03-21T08:01:26.080Z,34.83
2019-03-21T08:02:34.074Z,49.80
2019-03-21T08:03:40.114Z,49.50
2019-03-21T08:04:46.255Z,39.63
2019-03-21T08:05:52.203Z,39.47
2019-03-21T08:06:58.123Z,43.30
2019-03-21T08:08:03.960Z,40.03
2019-03-21T08:09:10.113Z,40.57
2019-03-21T08:10:16.128Z,32.70
2019-03-21T08:11:23.784Z,28.53
2019-03-21T08:12:30.723Z,30.13
2019-03-21T08:13:37.974Z,29.63
2019-03-21T08:14:45.234Z,28.97
2019-03-21T08:15:51.955Z,30.93
2019-03-21T08:16:59.645Z,31.10
2019-03-21T08:18:05.983Z,23.77
2019-03-21T08:19:13.904Z,29.03
2019-03-21T08:20:21.063Z,26.13
2019-03-21T08:21:29.346Z,31.73
2019-03-21T08:22:36.304Z,26.60
2019-03-21T08:23:44.072Z,31.73
2019-03-21T08:24:52.454Z,32.13
2019-03-21T08:26:00.233Z,29.43
2019-03-21T08:27:07.083Z,29.10
2019-03-21T08:28:13.102Z,27.00
2019-03-21T08:29:19.923Z,27.57
2019-03-21T08:30:33.342Z,32.57
2019-03-21T08:31:39.457Z,28.30
2019-03-21T08:32:46.369Z,24.30
2019-03-21T08:33:52.246Z,22.57
2019-03-21T08:34:58.143Z,32.30
2019-03-21T08:36:04.404Z,25.87
2019-03-21T08:37:10.346Z,26.20
2019-03-21T08:38:16.312Z,26.07
2019-03-21T08:39:22.344Z,31.57
2019-03-21T08:40:28.411Z,25.60
2019-03-21T08:41:35.024Z,29.43
2019-03-21T08:42:41.031Z,26.93
2019-03-21T08:43:48.938Z,31.10
2019-03-21T08:44:55.865Z,30.07
2019-03-21T08:46:04.429Z,28.40
2019-03-21T08:47:11.016Z,29.93
2019-03-21T08:48:17.082Z,32.17
2019-03-21T08:49:23.245Z,37.43
2019-03-21T08:50:31.025Z,36.30
2019-03-21T08:51:37.464Z,37.57
2019-03-21T08:52:43.663Z,31.60
2019-03-21T08:53:49.722Z,26.83
2019-03-21T08:54:55.656Z,37.63
2019-03-21T08:56:02.065Z,35.80
2019-03-21T08:57:08.415Z,38.20
2019-03-21T08:58:14.393Z,36.63
2019-03-21T08:59:22.020Z,35.63
2019-03-21T09:00:34.009Z,30.63
2019-03-21T09:01:35.625Z,28.87
2019-03-21T09:02:41.639Z,31.17
2019-03-21T09:03:47.816Z,27.40
2019-03-21T09:04:53.795Z,31.97
2019-03-21T09:05:59.691Z,30.83
2019-03-21T09:07:05.582Z,37.80
2019-03-21T09:08:11.642Z,26.13
2019-03-21T09:09:17.517Z,33.77
2019-03-21T09:10:23.473Z,35.63
2019-03-21T09:11:29.373Z,29.33
2019-03-21T09:12:35.329Z,32.13
2019-03-21T09:13:41.262Z,30.17
2019-03-21T09:14:47.747Z,27.87
2019-03-21T09:15:53.694Z,28.97
2019-03-21T09:17:00.180Z,36.00
2019-03-21T09:18:06.600Z,28.50
2019-03-21T09:19:12.777Z,29.63
2019-03-21T09:20:19.426Z,26.33
2019-03-21T09:21:26.804Z,28.87
2019-03-21T09:22:33.374Z,23.80
2019-03-21T09:23:40.566Z,28.37
2019-03-21T09:24:47.275Z,29.87
2019-03-21T09:25:56.407Z,23.27
2019-03-21T09:27:04.993Z,27.67
2019-03-21T09:28:14.352Z,32.27
2019-03-21T09:29:20.685Z,29.33
2019-03-21T09:30:27.096Z,28.37
2019-03-21T09:31:33.195Z,29.47
2019-03-21T09:32:39.032Z,23.07
2019-03-21T09:33:44.965Z,35.43
2019-03-21T09:34:50.784Z,33.20
2019-03-21T09:35:56.668Z,26.13
2019-03-21T09:37:04.067Z,29.10
2019-03-21T09:38:10.145Z,28.87
2019-03-21T09:39:16.086Z,23.87
2019-03-21T09:40:22.266Z,23.97
2019-03-21T09:41:29.116Z,26.87
2019-03-21T09:42:35.467Z,29.67
2019-03-21T09:43:41.995Z,30.17
2019-03-21T09:44:49.793Z,29.47
2019-03-21T09:45:56.706Z,29.20
2019-03-21T09:47:02.715Z,27.53
2019-03-21T09:48:09.438Z,30.47
2019-03-21T09:49:15.581Z,28.87
2019-03-21T09:50:31.147Z,25.17
2019-03-21T09:51:38.457Z,25.27
2019-03-21T09:52:44.362Z,26.80
2019-03-21T09:53:52.346Z,27.10
2019-03-21T09:54:58.189Z,28.90
2019-03-21T09:56:04.028Z,23.20
2019-03-21T09:57:10.467Z,53.47
2019-03-21T09:58:18.598Z,46.30
2019-03-21T09:59:24.498Z,33.17
2019-03-21T10:00:37.313Z,23.80
2019-03-21T10:01:43.132Z,26.50
2019-03-21T10:02:49.237Z,25.63
2019-03-21T10:03:55.267Z,31.83
2019-03-21T10:05:02.747Z,23.37
2019-03-21T10:06:08.630Z,25.83
2019-03-21T10:07:16.177Z,26.80
2019-03-21T10:08:22.527Z,31.40
2019-03-21T10:09:28.537Z,29.27
2019-03-21T10:10:35.779Z,31.23
2019-03-21T10:11:41.704Z,23.60
2019-03-21T10:12:47.728Z,26.53
2019-03-21T10:13:54.354Z,39.23
2019-03-21T10:15:01.083Z,25.43
2019-03-21T10:16:07.164Z,26.20
2019-03-21T10:17:14.528Z,39.57
2019-03-21T10:18:21.161Z,30.93
2019-03-21T10:19:29.350Z,29.60
2019-03-21T10:20:37.468Z,26.50
2019-03-21T10:21:45.699Z,27.03
2019-03-21T10:22:52.355Z,27.23
2019-03-21T10:23:58.439Z,31.73
2019-03-21T10:25:07.044Z,31.80
2019-03-21T10:27:36.598Z,31.13
2019-03-21T10:28:42.556Z,35.63
2019-03-21T10:29:48.328Z,33.93
2019-03-21T10:30:54.261Z,32.40
2019-03-21T10:32:00.393Z,32.23
2019-03-21T10:33:08.135Z,32.53
2019-03-21T10:34:14.142Z,32.27
2019-03-21T10:35:21.895Z,29.60
2019-03-21T10:36:27.773Z,29.37
2019-03-21T10:37:35.234Z,31.37
2019-03-21T10:38:41.051Z,34.13
2019-03-21T10:39:46.955Z,37.33
2019-03-21T10:40:53.667Z,34.43
2019-03-21T10:42:00.759Z,35.07
2019-03-21T10:43:07.262Z,30.10
2019-03-21T10:44:13.550Z,32.03
2019-03-21T10:45:19.584Z,28.27
2019-03-21T10:46:26.939Z,25.27
2019-03-21T10:47:33.399Z,29.47
2019-03-21T10:48:39.698Z,30.00
2019-03-21T10:49:46.367Z,34.90
2019-03-21T10:50:53.349Z,30.50
2019-03-21T10:52:00.079Z,28.80
2019-03-21T10:53:07.730Z,30.83
2019-03-21T10:54:13.930Z,30.07
2019-03-21T10:55:19.765Z,27.97
2019-03-21T10:56:26.879Z,30.93
2019-03-21T10:57:34.476Z,29.77
2019-03-21T10:58:40.939Z,33.60
2019-03-21T10:59:46.885Z,33.83
2019-03-21T11:00:55.949Z,32.00
2019-03-21T11:02:07.141Z,26.97
2019-03-21T11:03:11.014Z,34.43
2019-03-21T11:04:16.869Z,31.60
2019-03-21T11:05:23.292Z,26.80
2019-03-21T11:06:29.364Z,28.83
2019-03-21T11:07:35.483Z,27.87
2019-03-21T11:08:41.564Z,28.37
2019-03-21T11:09:47.557Z,30.67
2019-03-21T11:10:53.393Z,28.87
2019-03-21T11:12:00.440Z,27.60
2019-03-21T11:13:07.382Z,30.10
2019-03-21T11:14:13.523Z,32.63
2019-03-21T11:15:19.397Z,32.40
2019-03-21T11:16:25.225Z,32.20
2019-03-21T11:17:31.178Z,29.77
2019-03-21T11:18:37.020Z,28.20
2019-03-21T11:19:43.071Z,25.33
2019-03-21T11:20:48.944Z,23.80
2019-03-21T11:22:05.773Z,26.17
2019-03-21T11:23:03.456Z,27.77
2019-03-21T11:24:09.400Z,28.57
2019-03-21T11:25:15.225Z,26.43
2019-03-21T11:26:21.118Z,25.20
2019-03-21T11:27:26.949Z,31.37
2019-03-21T11:28:32.738Z,23.77
2019-03-21T11:29:38.587Z,26.57
2019-03-21T11:30:44.991Z,31.90
2019-03-21T11:31:50.869Z,25.37
2019-03-21T11:32:56.677Z,25.87
2019-03-21T11:34:02.624Z,24.00
2019-03-21T11:35:08.468Z,26.23
2019-03-21T11:36:15.348Z,25.73
2019-03-21T11:37:21.207Z,23.13
2019-03-21T11:38:27.204Z,25.63
2019-03-21T11:39:36.070Z,25.60
2019-03-21T11:40:42.541Z,21.80
2019-03-21T11:41:49.291Z,25.50
2019-03-21T11:42:55.742Z,21.67
2019-03-21T11:44:02.671Z,24.10
2019-03-21T11:45:09.929Z,24.57
2019-03-21T11:46:16.239Z,37.57
2019-03-21T11:47:24.103Z,39.97
2019-03-21T11:48:32.834Z,36.33
2019-03-21T11:49:39.050Z,31.63
2019-03-21T11:50:44.967Z,37.50
2019-03-21T11:52:18.086Z,56.43
2019-03-21T11:53:21.192Z,22.57
2019-03-21T11:54:27.099Z,29.10
2019-03-21T11:55:33.772Z,33.17
2019-03-21T11:56:40.772Z,32.63
2019-03-21T11:57:47.184Z,29.87
2019-03-21T11:58:53.045Z,33.33
2019-03-21T11:59:58.869Z,37.50
2019-03-21T12:01:06.392Z,33.07
2019-03-21T12:02:12.224Z,53.67
2019-03-21T12:03:18.100Z,45.27
2019-03-21T12:04:23.911Z,42.07
2019-03-21T12:05:29.870Z,33.03
2019-03-21T12:06:35.996Z,25.70
2019-03-21T12:07:41.897Z,26.40
2019-03-21T12:08:48.119Z,22.37
2019-03-21T12:09:54.143Z,23.67
2019-03-21T12:11:00.016Z,24.33
2019-03-21T12:12:05.834Z,27.07
2019-03-21T12:13:13.636Z,28.77
2019-03-21T12:14:19.447Z,26.30
2019-03-21T12:15:25.420Z,24.77
2019-03-21T12:16:31.305Z,27.43
2019-03-21T12:17:37.944Z,24.27
2019-03-21T12:18:43.972Z,25.10
2019-03-21T12:19:50.885Z,25.67
2019-03-21T12:20:57.713Z,24.97
2019-03-21T12:22:04.969Z,25.33
2019-03-21T12:23:11.914Z,29.80
2019-03-21T12:24:18.512Z,27.03
2019-03-21T12:25:25.153Z,26.23
2019-03-21T12:26:31.311Z,27.07
2019-03-21T12:27:38.794Z,23.17
2019-03-21T12:28:45.926Z,28.10
2019-03-21T12:29:51.863Z,23.90
2019-03-21T12:30:57.889Z,25.23
2019-03-21T12:32:03.839Z,30.10
2019-03-21T12:33:09.718Z,27.70
2019-03-21T12:34:15.618Z,26.80
2019-03-21T12:35:21.493Z,29.60
2019-03-21T12:36:27.379Z,27.23
2019-03-21T12:37:33.170Z,33.43
2019-03-21T12:38:39.100Z,25.80
2019-03-21T12:39:44.923Z,27.27
2019-03-21T12:40:50.875Z,25.60
2019-03-21T12:41:57.739Z,28.97
2019-03-21T12:43:03.588Z,23.43
2019-03-21T12:44:09.433Z,30.63
2019-03-21T12:45:15.322Z,25.80
2019-03-21T12:46:21.159Z,25.87
2019-03-21T12:47:31.402Z,26.07
2019-03-21T12:48:34.683Z,22.80
2019-03-21T12:49:40.578Z,25.60
2019-03-21T12:50:47.889Z,22.97
2019-03-21T12:51:54.241Z,22.47
2019-03-21T12:53:00.882Z,23.53
2019-03-21T12:54:07.412Z,26.00
2019-03-21T12:55:14.004Z,29.17
2019-03-21T12:56:20.659Z,27.80
2019-03-21T12:57:26.718Z,33.40
2019-03-21T12:58:33.282Z,25.20
2019-03-21T12:59:39.336Z,50.57
2019-03-21T13:00:45.114Z,33.10
2019-03-21T13:01:51.071Z,32.90
2019-03-21T13:02:57.112Z,29.73
2019-03-21T13:04:03.000Z,27.53
2019-03-21T13:05:10.045Z,31.63
2019-03-21T13:06:15.892Z,32.60
2019-03-21T13:07:22.058Z,27.37
2019-03-21T13:08:33.743Z,20.50
2019-03-21T13:09:35.884Z,17.73
2019-03-21T13:10:41.723Z,17.73
2019-03-21T13:11:48.243Z,20.77
2019-03-21T13:12:54.564Z,22.57
2019-03-21T13:14:00.600Z,19.67
2019-03-21T13:15:07.874Z,21.77
2019-03-21T13:16:14.381Z,17.50
2019-03-21T13:17:21.754Z,22.50
2019-03-21T13:18:27.733Z,25.30
2019-03-21T13:19:34.692Z,19.40
2019-03-21T13:20:41.685Z,21.23
2019-03-21T13:21:48.160Z,19.93
2019-03-21T13:22:54.496Z,24.57
2019-03-21T13:24:01.622Z,21.03
2019-03-21T13:25:08.031Z,20.90
2019-03-21T13:26:13.785Z,23.93
2019-03-21T13:27:20.200Z,30.43
2019-03-21T13:28:26.426Z,46.23
2019-03-21T13:29:32.254Z,27.20
2019-03-21T13:30:38.114Z,28.93
2019-03-21T13:31:44.117Z,22.27
2019-03-21T13:32:50.051Z,20.07
2019-03-21T13:33:56.035Z,24.20
2019-03-21T13:35:02.042Z,23.90
2019-03-21T13:36:08.081Z,19.70
2019-03-21T13:37:14.126Z,23.70
2019-03-21T13:38:20.049Z,29.20
2019-03-21T13:39:25.913Z,19.67
2019-03-21T13:40:31.763Z,15.63
2019-03-21T13:41:37.999Z,16.23
2019-03-21T13:42:46.275Z,19.60
2019-03-21T13:43:52.215Z,22.87
2019-03-21T13:44:58.665Z,16.83
2019-03-21T13:46:05.056Z,27.23
2019-03-21T13:47:11.504Z,19.23
2019-03-21T13:48:17.482Z,24.77
2019-03-21T13:49:25.726Z,15.90
2019-03-21T13:50:31.806Z,18.53
2019-03-21T13:51:37.705Z,19.27
2019-03-21T13:52:43.552Z,20.10
2019-03-21T13:53:49.837Z,21.00
2019-03-21T13:54:56.635Z,16.40
2019-03-21T13:56:03.565Z,29.90
2019-03-21T13:57:12.587Z,18.53
2019-03-21T13:58:18.931Z,23.63
2019-03-21T13:59:24.846Z,18.77
2019-03-21T14:00:30.636Z,22.03
2019-03-21T14:01:36.570Z,20.90
2019-03-21T14:02:42.384Z,18.90
2019-03-21T14:03:48.321Z,25.77
2019-03-21T14:05:15.056Z,20.77
2019-03-21T14:06:22.642Z,21.17
2019-03-21T14:07:28.536Z,18.13
2019-03-21T14:08:34.774Z,22.17
2019-03-21T14:09:40.835Z,18.57
2019-03-21T14:10:47.083Z,21.20
2019-03-21T14:11:52.904Z,20.13
2019-03-21T14:13:00.251Z,27.03
2019-03-21T14:14:07.883Z,19.50
2019-03-21T14:15:17.890Z,18.37
2019-03-21T14:16:24.237Z,16.67
2019-03-21T14:17:30.656Z,23.50
2019-03-21T14:18:36.964Z,34.17
2019-03-21T14:19:43.798Z,27.27
2019-03-21T14:20:49.933Z,21.37
2019-03-21T14:22:00.506Z,27.87
2019-03-21T14:23:17.598Z,25.53
2019-03-21T14:24:27.774Z,21.30
2019-03-21T14:25:39.067Z,21.87
2019-03-21T14:27:10.024Z,24.23
2019-03-21T14:28:38.328Z,20.37
2019-03-21T14:30:00.878Z,29.53
2019-03-21T14:31:02.692Z,26.83
2019-03-21T14:32:08.731Z,18.50
2019-03-21T14:33:25.133Z,23.87
2019-03-21T14:34:38.499Z,25.57
2019-03-21T14:35:44.376Z,20.37
2019-03-21T14:36:50.417Z,19.60
2019-03-21T14:37:56.477Z,24.07
2019-03-21T14:39:05.727Z,71.80
2019-03-21T14:40:14.317Z,40.07
2019-03-21T14:41:20.384Z,21.97
2019-03-21T14:42:26.361Z,34.53
2019-03-21T14:43:33.394Z,25.30
2019-03-21T14:45:00.618Z,24.30
2019-03-21T14:46:07.047Z,24.33
2019-03-21T14:47:14.385Z,19.10
2019-03-21T14:48:20.877Z,36.27